HOURLY OBS INDEX

008

Central West

ALLANOOKA AG STATION

Site: 008LNO
Alt: 150m
46km SE of GERALDTON


  Time     Wind        Temp  DP   Baro     Rain since   Rain past  Vis(m), Cloud(base in m), Weather
  local        km/h                         9am  last   hr   10m    
Wed 13:00   SE 11/ 22  22.9  6.8  ------    0.0   0.0   0.0   0.0   ----- 
Wed 13:30    E  9/ 22  23.3  6.9  ------    0.0   0.0   0.0   0.0   ----- 
Wed 14:00    S  9/ 20  23.1 10.3  ------    0.0   0.0   0.0   0.0   ----- 
Wed 14:30   SW 17/ 28  21.5 11.5  ------    0.0   0.0   0.0   0.0   ----- 
Wed 15:00  SSW 17/ 32  20.9 11.3  ------    0.0   0.0   0.0   0.0   ----- 
Wed 15:30  SSW 19/ 28  20.5 11.5  ------    0.0   0.0   0.0   0.0   ----- 
Wed 16:00  SSW 19/ 30  20.2 11.4  ------    0.0   0.0   0.0   0.0   ----- 
Wed 16:30    S 17/ 26  19.8 11.9  ------    0.0   0.0   0.0   0.0   ----- 
Wed 17:00  SSW 15/ 22  18.7 12.5  ------    0.0   0.0   0.0   0.0   ----- 
Wed 17:30    S 15/ 26  17.6 12.2  ------    0.0   0.0   0.0   0.0   ----- 
Wed 18:00    S 11/ 19  16.0 12.4  ------    0.0   0.0   0.0   0.0   ----- 
Wed 18:00    S 11/ 19  16.0 12.4  ------    0.0   0.0  ----   0.0   ----- 
Wed 18:30  SSW  2/  9  14.6 12.1  ------    0.0   0.0   0.0   0.0   ----- 

BINDI BINDI AG STATION

Site: 008IBI
Alt: 300m
33km ENE of MOORA


  Time     Wind        Temp  DP   Baro     Rain since   Rain past  Vis(m), Cloud(base in m), Weather
  local        km/h                         9am  last   hr   10m    
Wed 13:00   SE  7/ 13  18.3  9.5  ------    0.0   0.0   0.0   0.0   ----- 
Wed 13:30  SSE  6/ 15  19.1  9.7  ------    0.0   0.0   0.0   0.0   ----- 
Wed 14:00  SSE  7/ 15  19.3 10.0  ------    0.0   0.0   0.0   0.0   ----- 
Wed 14:30    S  7/ 17  19.7  9.6  ------    0.0   0.0   0.0   0.0   ----- 
Wed 15:00  SSE  7/ 15  19.9  9.7  ------    0.0   0.0   0.0   0.0   ----- 
Wed 15:30  SSE  7/ 15  19.7  9.7  ------    0.0   0.0   0.0   0.0   ----- 
Wed 16:00   SE  7/ 13  19.2  9.0  ------    0.0   0.0   0.0   0.0   ----- 
Wed 16:30  SSE  6/ 13  19.3  8.2  ------    0.0   0.0   0.0   0.0   ----- 
Wed 17:00    S  6/  9  19.0  8.0  ------    0.0   0.0   0.0   0.0   ----- 
Wed 17:30    S  4/ 11  17.8  8.4  ------    0.0   0.0   0.0   0.0   ----- 
Wed 18:00    S  2/  6  14.9  8.0  ------    0.0   0.0   0.0   0.0   ----- 
Wed 18:30    S  2/  6  13.4  7.9  ------    0.0   0.0   0.0   0.0   ----- 

BINNU AG STATION

Site: 008GBI
Alt: 277 m
82km N of GERALDTON


  Time     Wind        Temp  DP   Baro     Rain since   Rain past  Vis(m), Cloud(base in m), Weather
  local        km/h                         9am  last   hr   10m    
Wed 13:00   SE 15/ 24  23.9  2.7  ------    0.0   0.0   0.0   0.0   ----- 
Wed 13:30   SE 17/ 32  24.1  2.5  ------    0.0   0.0   0.0   0.0   ----- 
Wed 14:00   SE 20/ 35  24.6  1.6  ------    0.0   0.0   0.0   0.0   ----- 
Wed 14:30  ESE 20/ 32  25.1  1.2  ------    0.0   0.0   0.0   0.0   ----- 
Wed 15:00  ESE 24/ 35  24.4 -0.2  ------    0.0   0.0   0.0   0.0   ----- 
Wed 15:30   SE 20/ 33  24.4  1.2  ------    0.0   0.0   0.0   0.0   ----- 
Wed 16:00  ESE 20/ 28  24.3  0.7  ------    0.0   0.0   0.0   0.0   ----- 
Wed 16:30   SE 15/ 22  24.5  1.6  ------    0.0   0.0   0.0   0.0   ----- 
Wed 17:00   SE 19/ 26  23.8  1.5  ------    0.0   0.0   0.0   0.0   ----- 
Wed 17:30   SE 17/ 24  22.7  2.1  ------    0.0   0.0   0.0   0.0   ----- 
Wed 18:00    S 20/ 30  19.4  9.2  ------    0.0   0.0   0.0   0.0   ----- 
Wed 18:30    S 22/ 30  17.2  9.9  ------    0.0   0.0   0.0   0.0   ----- 

CANNA EAST AG STATION

Site: 008NAE
Alt: 340m
60km SE of MULLEWA


  Time     Wind        Temp  DP   Baro     Rain since   Rain past  Vis(m), Cloud(base in m), Weather
  local        km/h                         9am  last   hr   10m    
Wed 13:00  ESE 13/ 26  22.0  1.6  ------    0.0   0.0   0.0   0.0   ----- 
Wed 13:30   SE 15/ 26  23.1  1.0  ------    0.0   0.0   0.0   0.0   ----- 
Wed 14:00    E 15/ 28  23.3  0.7  ------    0.0   0.0   0.0   0.0   ----- 
Wed 14:30   SE 13/ 26  23.6  1.1  ------    0.0   0.0   0.0   0.0   ----- 
Wed 15:00  ESE 13/ 30  24.0  0.8  ------    0.0   0.0   0.0   0.0   ----- 
Wed 15:30   SE 13/ 24  23.8  0.7  ------    0.0   0.0   0.0   0.0   ----- 
Wed 16:00   SE 13/ 22  23.7  1.2  ------    0.0   0.0   0.0   0.0   ----- 
Wed 16:30   SE 15/ 24  23.6  1.6  ------    0.0   0.0   0.0   0.0   ----- 
Wed 17:00  SSE 13/ 22  23.0  1.6  ------    0.0   0.0   0.0   0.0   ----- 
Wed 17:30   SE 15/ 28  22.0  1.7  ------    0.0   0.0   0.0   0.0   ----- 
Wed 18:00  SSE 11/ 20  20.9  2.0  ------    0.0   0.0   0.0   0.0   ----- 
Wed 18:30   SE  7/ 13  19.2  2.3  ------    0.0   0.0   0.0   0.0   ----- 

CHAPMAN VALLEY AG STATION

Site: 008GCH
Alt: 191 m
39km NE of GERALDTON


  Time     Wind        Temp  DP   Baro     Rain since   Rain past  Vis(m), Cloud(base in m), Weather
  local        km/h                         9am  last   hr   10m    
Wed 13:00  ESE  9/ 22  24.8  5.3  ------    0.0   0.0   0.0   0.0   ----- 
Wed 13:30   SE 11/ 20  24.5  4.6  ------    0.0   0.0   0.0   0.0   ----- 
Wed 14:00   SE  9/ 22  25.0  5.1  ------    0.0   0.0   0.0   0.0   ----- 
Wed 14:30  ESE 13/ 22  24.8  3.5  ------    0.0   0.0   0.0   0.0   ----- 
Wed 15:00  SSE  9/ 19  25.4  3.3  ------    0.0   0.0   0.0   0.0   ----- 
Wed 15:30   SE 11/ 22  25.0  4.3  ------    0.0   0.0   0.0   0.0   ----- 
Wed 16:00    S 19/ 33  22.8 10.1  ------    0.0   0.0   0.0   0.0   ----- 
Wed 16:30    S 19/ 28  21.8 10.1  ------    0.0   0.0   0.0   0.0   ----- 
Wed 17:00    S 17/ 26  20.8 11.2  ------    0.0   0.0   0.0   0.0   ----- 
Wed 17:30    S 13/ 24  19.3 11.5  ------    0.0   0.0   0.0   0.0   ----- 
Wed 18:00    S 11/ 19  17.6 11.9  ------    0.0   0.0   0.0   0.0   ----- 
Wed 18:30    S  9/ 19  15.6 12.5  ------    0.0   0.0   0.0   0.0   ----- 

COOROW AG STATION

Site: 008ORW
Alt: 280m
28km SSE of CARNAMAH


  Time     Wind        Temp  DP   Baro     Rain since   Rain past  Vis(m), Cloud(base in m), Weather
  local        km/h                         9am  last   hr   10m    
Wed 13:00   SE  7/ 17  21.0  5.8  ------    0.0   0.0   0.0   0.0   ----- 
Wed 13:30  ESE  9/ 20  21.5  5.2  ------    0.0   0.0   0.0   0.0   ----- 
Wed 13:30  ESE  9/ 20  21.5  5.2  ------    0.0   0.0  ----   0.0   ----- 
Wed 14:00  SSE 11/ 22  22.1  5.7  ------    0.0   0.0   0.0   0.0   ----- 
Wed 14:30   SE 11/ 20  22.1  4.9  ------    0.0   0.0   0.0   0.0   ----- 
Wed 15:00  SSE 11/ 20  22.3  5.3  ------    0.0   0.0   0.0   0.0   ----- 
Wed 15:00  SSE 11/ 20  22.3  5.3  ------    0.0   0.0  ----   0.0   ----- 
Wed 15:30  ESE  9/ 17  22.2  4.9  ------    0.0   0.0   0.0   0.0   ----- 
Wed 16:00  ESE 11/ 22  22.2  4.9  ------    0.0   0.0   0.0   0.0   ----- 
Wed 16:00  ESE 11/ 22  22.2  4.9  ------    0.0   0.0  ----   0.0   ----- 
Wed 16:30   SE 13/ 20  21.9  5.5  ------    0.0   0.0   0.0   0.0   ----- 
Wed 17:00   SE  9/ 17  21.4  5.0  ------    0.0   0.0   0.0   0.0   ----- 
Wed 17:00   SE  9/ 17  21.4  5.0  ------    0.0   0.0  ----   0.0   ----- 
Wed 17:30  SSE 13/ 19  20.7  4.7  ------    0.0   0.0   0.0   0.0   ----- 
Wed 18:00   SE  9/ 15  19.4  5.2  ------    0.0   0.0   0.0   0.0   ----- 
Wed 18:00   SE  9/ 15  19.4  5.2  ------    0.0   0.0  ----   0.0   ----- 
Wed 18:30  SSE  7/ 11  17.1  6.1  ------    0.0   0.0   0.0   0.0   ----- 

DALWALLINU

Site: 008297
Alt: 324.5m
76km ENE of MOORA


  Time     Wind        Temp  DP   Baro     Rain since   Rain past  Vis(m), Cloud(base in m), Weather
  local        km/h                         9am  last   hr   10m    
Wed 13:00  ESE 17/ 28  20.1  7.1  1026.0    0.0   0.0   0.0   0.0   ----- 
Wed 14:00   SE 15/ 30  20.9  5.3  1025.4    0.0   0.0   0.0   0.0   ----- 
Wed 15:00  SSE 19/ 30  21.1  6.2  1024.8    0.0   0.0   0.0   0.0   ----- 
Wed 16:00  SSE 13/ 22  20.5  6.1  1024.4    0.0   0.0   0.0   0.0   ----- 
Wed 17:00  SSE 17/ 24  19.5  6.3  1024.5    0.0   0.0   0.0   0.0   ----- 
Wed 18:00    S 13/ 17  15.3  7.1  1024.8    0.0   0.0   0.0   0.0   ----- 

ENEABBA AG STATION

Site: 008NEA
Alt: 210m
56km WSW of CARNAMAH


  Time     Wind        Temp  DP   Baro     Rain since   Rain past  Vis(m), Cloud(base in m), Weather
  local        km/h                         9am  last   hr   10m    
Wed 13:00  ESE  6/ 13  21.0  7.9  ------    0.0   0.0   0.0   0.0   ----- 
Wed 13:30   SE  7/ 19  21.1  6.9  ------    0.0   0.0   0.0   0.0   ----- 
Wed 13:30   SE  7/ 19  21.1  6.9  ------    0.0   0.0  ----   0.0   ----- 
Wed 14:00  ESE 11/ 17  21.5  6.6  ------    0.0   0.0   0.0   0.0   ----- 
Wed 14:30  ESE 11/ 19  21.9  7.7  ------    0.0   0.0   0.0   0.0   ----- 
Wed 15:00  ESE  9/ 19  22.2  6.6  ------    0.0   0.0   0.0   0.0   ----- 
Wed 15:00  ESE  9/ 19  22.2  6.6  ------    0.0   0.0  ----   0.0   ----- 
Wed 15:30   SE 11/ 19  22.3  4.8  ------    0.0   0.0   0.0   0.0   ----- 
Wed 16:00   SE  9/ 17  22.6  6.2  ------    0.0   0.0   0.0   0.0   ----- 
Wed 16:00   SE  9/ 17  22.6  6.2  ------    0.0   0.0  ----   0.0   ----- 
Wed 16:30   SE 11/ 17  22.2  4.6  ------    0.0   0.0   0.0   0.0   ----- 
Wed 17:00  ESE  9/ 17  21.4  5.6  ------    0.0   0.0   0.0   0.0   ----- 
Wed 17:00  ESE  9/ 17  21.4  5.6  ------    0.0   0.0  ----   0.0   ----- 
Wed 17:30   SE  7/ 13  20.2  6.4  ------    0.0   0.0   0.0   0.0   ----- 
Wed 18:00  ESE  7/ 13  18.4  5.5  ------    0.0   0.0   0.0   0.0   ----- 
Wed 18:00  ESE  7/ 13  18.4  5.5  ------    0.0   0.0  ----   0.0   ----- 
Wed 18:30  SSE  7/ 13  17.0  6.3  ------    0.0   0.0   0.0   0.0   ----- 

ERADU AG STATION

Site: 008GER
Alt: 259 m
38km E of GERALDTON


  Time     Wind        Temp  DP   Baro     Rain since   Rain past  Vis(m), Cloud(base in m), Weather
  local        km/h                         9am  last   hr   10m    
Wed 13:00    E 11/ 24  22.8  5.3  ------    0.0   0.0   0.0   0.0   ----- 
Wed 13:30  ESE 11/ 26  23.3  5.4  ------    0.0   0.0   0.0   0.0   ----- 
Wed 14:00  ESE 11/ 24  23.7  4.7  ------    0.0   0.0   0.0   0.0   ----- 
Wed 14:30    E 11/ 20  23.7  5.3  ------    0.0   0.0   0.0   0.0   ----- 
Wed 15:00  ESE 11/ 26  23.8  5.6  ------    0.0   0.0   0.0   0.0   ----- 
Wed 15:30  ESE 13/ 28  23.8  4.9  ------    0.0   0.0   0.0   0.0   ----- 
Wed 16:00    S 13/ 28  22.3 10.7  ------    0.0   0.0   0.0   0.0   ----- 
Wed 16:30    S 13/ 22  21.0 11.3  ------    0.0   0.0   0.0   0.0   ----- 
Wed 17:00    S 11/ 24  20.2 11.5  ------    0.0   0.0   0.0   0.0   ----- 
Wed 17:30    S  9/ 20  18.9 11.7  ------    0.0   0.0   0.0   0.0   ----- 
Wed 18:00    S  6/ 15  17.3 11.9  ------    0.0   0.0   0.0   0.0   ----- 
Wed 18:30    S  7/ 17  15.4 11.8  ------    0.0   0.0   0.0   0.0   ----- 

ERANGY SPRINGS AG STATION

Site: 008RAS
Alt: 235m
65km E of GERALDTON


  Time     Wind        Temp  DP   Baro     Rain since   Rain past  Vis(m), Cloud(base in m), Weather
  local        km/h                         9am  last   hr   10m    
Wed 13:00   SE  9/ 20  21.7  3.1  ------    0.0   0.0   0.0   0.0   ----- 
Wed 13:30  ESE  9/ 19  22.4  5.0  ------    0.0   0.0   0.0   0.0   ----- 
Wed 14:00   SE  9/ 22  22.9  3.9  ------    0.0   0.0   0.0   0.0   ----- 
Wed 14:30  ESE  9/ 22  22.8  3.8  ------    0.0   0.0   0.0   0.0   ----- 
Wed 15:00  ESE  9/ 17  23.1  3.1  ------    0.0   0.0   0.0   0.0   ----- 
Wed 15:30  ESE  9/ 20  23.1  3.5  ------    0.0   0.0   0.0   0.0   ----- 
Wed 16:00   SE  7/ 17  22.9  3.3  ------    0.0   0.0   0.0   0.0   ----- 
Wed 16:30  ESE 11/ 20  22.6  4.4  ------    0.0   0.0   0.0   0.0   ----- 
Wed 17:00   SE  7/ 19  22.1  4.3  ------    0.0   0.0   0.0   0.0   ----- 
Wed 17:30   SE  6/ 13  21.1  4.7  ------    0.0   0.0   0.0   0.0   ----- 
Wed 18:00  SSE  2/  6  18.1  7.5  ------    0.0   0.0   0.0   0.0   ----- 
Wed 18:30    C  0/  2  15.2  7.1  ------    0.0   0.0   0.0   0.0   ----- 

GERALDTON AIRPORT

Site: 008315
Alt: 29.7m
9km ESE of GERALDTON


  Time     Wind        Temp  DP   Baro     Rain since   Rain past  Vis(m), Cloud(base in m), Weather
  local        km/h                         9am  last   hr   10m    
Wed 13:00    S 24/ 32  21.9 10.7  1024.3    0.0   0.0   0.0   0.0   10000 
Wed 13:30    S 32/ 39  21.1 10.9  1023.9    0.0   0.0   0.0   0.0   10000 
Wed 14:00    S 30/ 33  21.2 11.0  1023.5    0.0   0.0   0.0   0.0   10000 
Wed 14:30    S 28/ 35  20.9 11.3  1023.3    0.0   0.0   0.0   0.0   10000 
Wed 14:30    S 28/ 35  20.9 11.3  1023.3    0.0   0.0  ----   0.0   10000 
Wed 15:00    S 32/ 39  20.7 11.1  1023.1    0.0   0.0   0.0   0.0   10000 
Wed 15:30    S 30/ 39  20.6 10.7  1022.9    0.0   0.0   0.0   0.0   10000 
Wed 16:00    S 28/ 35  20.2 12.4  1023.0    0.0   0.0   0.0   0.0   10000 
Wed 16:30    S 28/ 37  19.3 12.3  1022.9    0.0   0.0   0.0   0.0   10000 
Wed 17:00    S 26/ 35  18.9 12.4  1022.8    0.0   0.0   0.0   0.0   10000 
Wed 17:30    S 26/ 35  18.1 12.3  1022.8    0.0   0.0   0.0   0.0   10000 
Wed 18:00  SSE 22/ 30  17.1 13.0  1023.0    0.0   0.0   0.0   0.0   10000 
Wed 18:30  SSE 19/ 28  16.0 13.1  1023.1    0.0   0.0   0.0   0.0   10000 

GUTHA WEST AG STATION

Site: 008TAW
Alt: 280m
65km SSE of MULLEWA


  Time     Wind        Temp  DP   Baro     Rain since   Rain past  Vis(m), Cloud(base in m), Weather
  local        km/h                         9am  last   hr   10m    
Wed 13:00  ESE  7/ 24  22.1  2.0  ------    0.0   0.0   0.0   0.0   ----- 
Wed 13:30  ESE 11/ 26  22.0  2.0  ------    0.0   0.0   0.0   0.0   ----- 
Wed 14:00   SE 13/ 22  23.1  1.3  ------    0.0   0.0   0.0   0.0   ----- 
Wed 14:30  SSE 11/ 26  23.6  3.0  ------    0.0   0.0   0.0   0.0   ----- 
Wed 15:00  SSE  9/ 22  23.5  2.7  ------    0.0   0.0   0.0   0.0   ----- 
Wed 15:30  SSE 11/ 20  23.6  3.4  ------    0.0   0.0   0.0   0.0   ----- 
Wed 16:00  SSE 11/ 33  23.4  2.5  ------    0.0   0.0   0.0   0.0   ----- 
Wed 16:30   SE 13/ 20  22.6  2.5  ------    0.0   0.0   0.0   0.0   ----- 
Wed 17:00   SE  9/ 19  22.3  3.4  ------    0.0   0.0   0.0   0.0   ----- 
Wed 17:30   SE  7/ 15  21.5  3.4  ------    0.0   0.0   0.0   0.0   ----- 
Wed 18:00   SE  4/  7  19.3  4.1  ------    0.0   0.0   0.0   0.0   ----- 
Wed 18:30   SE  4/  7  16.1  4.3  ------    0.0   0.0   0.0   0.0   ----- 

LATHAM AG STATION

Site: 008THM
Alt: 300m
65km ESE of CARNAMAH


  Time     Wind        Temp  DP   Baro     Rain since   Rain past  Vis(m), Cloud(base in m), Weather
  local        km/h                         9am  last   hr   10m    
Wed 13:00  ESE  7/ 17  20.5  3.5  ------    0.0   0.0   0.0   0.0   ----- 
Wed 13:30  ESE  7/ 24  21.3  1.9  ------    0.0   0.0   0.0   0.0   ----- 
Wed 14:00   SE  9/ 20  21.5  3.6  ------    0.0   0.0   0.0   0.0   ----- 
Wed 14:30  SSE  9/ 17  22.4  4.2  ------    0.0   0.0   0.0   0.0   ----- 
Wed 15:00  ESE 13/ 22  22.1  3.5  ------    0.0   0.0   0.0   0.0   ----- 
Wed 15:30  SSE 11/ 24  22.2  3.5  ------    0.0   0.0   0.0   0.0   ----- 
Wed 16:00   SE 13/ 20  22.1  3.8  ------    0.0   0.0   0.0   0.0   ----- 
Wed 16:30  SSE  9/ 17  22.0  3.4  ------    0.0   0.0   0.0   0.0   ----- 
Wed 17:00   SE 11/ 20  21.4  4.0  ------    0.0   0.0   0.0   0.0   ----- 
Wed 17:30   SE 11/ 20  20.4  4.0  ------    0.0   0.0   0.0   0.0   ----- 
Wed 18:00  SSE  4/  7  17.9  5.2  ------    0.0   0.0   0.0   0.0   ----- 
Wed 18:30  SSE  2/  6  14.2  5.4  ------    0.0   0.0   0.0   0.0   ----- 

MINGENEW

Site: 008GMI
Alt: 295.0m
12km SW of MINGENEW


  Time     Wind        Temp  DP   Baro     Rain since   Rain past  Vis(m), Cloud(base in m), Weather
  local        km/h                         9am  last   hr   10m    
Wed 13:00    E  7/ 22  22.2  6.4  ------    0.0   0.0   0.0   0.0   ----- 
Wed 13:30  ESE 11/ 19  23.0  5.8  ------    0.0   0.0   0.0   0.0   ----- 
Wed 14:00  ESE 11/ 24  23.4  5.2  ------    0.0   0.0   0.0   0.0   ----- 
Wed 14:30  ESE 11/ 24  23.4  5.8  ------    0.0   0.0   0.0   0.0   ----- 
Wed 15:00   SE 11/ 22  23.4  5.5  ------    0.0   0.0   0.0   0.0   ----- 
Wed 15:30  ESE 11/ 20  23.0  6.5  ------    0.0   0.0   0.0   0.0   ----- 
Wed 16:00   SE 13/ 26  23.1  6.4  ------    0.0   0.0   0.0   0.0   ----- 
Wed 16:30   SE  9/ 20  22.7  6.6  ------    0.0   0.0   0.0   0.0   ----- 
Wed 17:00  ESE  7/ 15  21.6  7.3  ------    0.0   0.0   0.0   0.0   ----- 
Wed 17:30   SE  6/  9  19.5  7.6  ------    0.0   0.0   0.0   0.0   ----- 
Wed 18:00   SE  4/  7  16.4  8.1  ------    0.0   0.0   0.0   0.0   ----- 
Wed 18:30   SE  6/  7  14.0  7.4  ------    0.0   0.0   0.0   0.0   ----- 

MOORA AG STATION

Site: 008GMZ
Alt: m
km of


  Time     Wind        Temp  DP   Baro     Rain since   Rain past  Vis(m), Cloud(base in m), Weather
  local        km/h                         9am  last   hr   10m    
Wed 13:00    S  7/ 13  20.4 10.5  ------    0.0   0.0   0.0   0.0   ----- 
Wed 13:30  SSE  7/ 13  20.5  9.8  ------    0.0   0.0   0.0   0.0   ----- 
Wed 14:00   SE  6/ 13  20.5 10.2  ------    0.0   0.0   0.0   0.0   ----- 
Wed 14:30  SSE  7/ 17  21.5  8.8  ------    0.0   0.0   0.0   0.0   ----- 
Wed 15:00  SSE  7/ 15  22.0  8.6  ------    0.0   0.0   0.0   0.0   ----- 
Wed 15:30  SSE  9/ 19  21.1  7.4  ------    0.0   0.0   0.0   0.0   ----- 
Wed 16:00  SSE  7/ 11  21.2  8.1  ------    0.0   0.0   0.0   0.0   ----- 
Wed 16:30  SSE  7/ 13  20.6  8.4  ------    0.0   0.0   0.0   0.0   ----- 
Wed 17:00  SSE  7/ 13  20.2  7.8  ------    0.0   0.0   0.0   0.0   ----- 
Wed 17:30  SSE  6/  9  18.9  9.0  ------    0.0   0.0   0.0   0.0   ----- 
Wed 18:00  SSE  7/  9  16.0  8.2  ------    0.0   0.0   0.0   0.0   ----- 
Wed 18:30  SSE  6/  9  13.8  7.7  ------    0.0   0.0   0.0   0.0   ----- 

MORAWA AG STATION

Site: 008GMO
Alt: m
km of


  Time     Wind        Temp  DP   Baro     Rain since   Rain past  Vis(m), Cloud(base in m), Weather
  local        km/h                         9am  last   hr   10m    
Wed 13:00   SE  9/ 20  22.9  3.3  ------    0.0   0.0   0.0   0.0   ----- 
Wed 13:30   SE 15/ 26  22.4  3.2  ------    0.0   0.0   0.0   0.0   ----- 
Wed 14:00   SE 13/ 24  22.9  3.2  ------    0.0   0.0   0.0   0.0   ----- 
Wed 14:30   SE 13/ 22  23.3  3.1  ------    0.0   0.0   0.0   0.0   ----- 
Wed 15:00  SSE  9/ 22  23.2  3.8  ------    0.0   0.0   0.0   0.0   ----- 
Wed 15:30   SE 13/ 26  23.2  3.3  ------    0.0   0.0   0.0   0.0   ----- 
Wed 16:00    E 11/ 17  23.1  3.8  ------    0.0   0.0   0.0   0.0   ----- 
Wed 16:30   SE 11/ 24  23.2  4.0  ------    0.0   0.0   0.0   0.0   ----- 
Wed 17:00   SE 15/ 26  22.6  3.8  ------    0.0   0.0   0.0   0.0   ----- 
Wed 17:30  SSE  9/ 17  21.8  4.0  ------    0.0   0.0   0.0   0.0   ----- 
Wed 18:00  SSE  9/ 17  20.2  3.9  ------    0.0   0.0   0.0   0.0   ----- 
Wed 18:30  SSE  7/ 13  18.3  4.2  ------    0.0   0.0   0.0   0.0   ----- 

MORAWA AIRPORT

Site: 008296
Alt: 271.4m
145km ESE of GERALDTON


  Time     Wind        Temp  DP   Baro     Rain since   Rain past  Vis(m), Cloud(base in m), Weather
  local        km/h                         9am  last   hr   10m    
Wed 13:00  ESE 13/ 22  22.3  3.4  1025.2    0.0   0.0   0.0   0.0   ----- 
Wed 13:30   SE 13/ 24  22.8  3.4  1024.6    0.0   0.0   0.0   0.0   ----- 
Wed 14:00  ESE 11/ 26  23.1  3.6  1024.3    0.0   0.0   0.0   0.0   ----- 
Wed 14:30  ESE 13/ 22  23.6  3.5  1023.8    0.0   0.0   0.0   0.0   ----- 
Wed 15:00  ESE 19/ 30  23.4  3.4  1023.7    0.0   0.0   0.0   0.0   ----- 
Wed 15:30  ESE 11/ 19  23.1  3.1  1023.4    0.0   0.0   0.0   0.0   ----- 
Wed 16:00  ESE 15/ 22  23.6  4.0  1023.4    0.0   0.0   0.0   0.0   ----- 
Wed 16:30   SE 15/ 22  23.4  3.9  1023.3    0.0   0.0   0.0   0.0   ----- 
Wed 17:00  ESE 13/ 19  22.9  3.4  1023.3    0.0   0.0   0.0   0.0   ----- 
Wed 17:30   SE 15/ 22  21.9  3.6  1023.3    0.0   0.0   0.0   0.0   ----- 
Wed 18:00   SE 13/ 19  20.4  4.0  1023.4    0.0   0.0   0.0   0.0   ----- 
Wed 18:30  SSE 11/ 13  18.1  4.3  1023.6    0.0   0.0   0.0   0.0   ----- 

MULLEWA AG STATION

Site: 008GMU
Alt: m
92km ENE of GERALDTON


  Time     Wind        Temp  DP   Baro     Rain since   Rain past  Vis(m), Cloud(base in m), Weather
  local        km/h                         9am  last   hr   10m    
Wed 13:00  ESE  9/ 24  23.8  1.4  ------    0.0   0.0   0.0   0.0   ----- 
Wed 13:00  ESE  9/ 24  23.8  1.4  ------    0.0   0.0  ----   0.0   ----- 
Wed 13:30    E  7/ 19  24.2  1.8  ------    0.0   0.0   0.0   0.0   ----- 
Wed 14:00    E 11/ 26  23.8  0.5  ------    0.0   0.0   0.0   0.0   ----- 
Wed 14:30   SE  9/ 22  25.1  0.4  ------    0.0   0.0   0.0   0.0   ----- 
Wed 15:00   SE  7/ 20  25.1  0.2  ------    0.0   0.0   0.0   0.0   ----- 
Wed 15:30  ESE  9/ 24  25.0  1.0  ------    0.0   0.0   0.0   0.0   ----- 
Wed 16:00  ESE  7/ 24  24.6  1.2  ------    0.0   0.0   0.0   0.0   ----- 
Wed 16:30   SE 11/ 26  24.3  1.3  ------    0.0   0.0   0.0   0.0   ----- 
Wed 17:00   SE  9/ 22  24.0  1.6  ------    0.0   0.0   0.0   0.0   ----- 
Wed 17:30   SE  7/ 17  23.1  1.5  ------    0.0   0.0   0.0   0.0   ----- 
Wed 18:00   SE  6/ 11  21.7  2.2  ------    0.0   0.0   0.0   0.0   ----- 
Wed 18:30   SE  2/  7  18.9  2.6  ------    0.0   0.0   0.0   0.0   ----- 

MURESK AG STATION

Site: 008GMK
Alt: 116.0m
8km SSE of NORTHAM


  Time     Wind        Temp  DP   Baro     Rain since   Rain past  Vis(m), Cloud(base in m), Weather
  local        km/h                         9am  last   hr   10m    
Wed 13:00    S  4/ 13  18.2 10.1  ------    0.0   0.0   0.0   0.0   ----- 
Wed 13:00    S  4/ 13  18.2 10.1  ------    0.0   0.0  ----   0.0   ----- 
Wed 13:30   SW  2/  7  18.4  9.2  ------    0.0   0.0   0.0   0.0   ----- 
Wed 14:00  ESE  4/ 13  19.4  9.8  ------    0.0   0.0   0.0   0.0   ----- 
Wed 14:30  SSE  2/ 11  19.9  7.4  ------    0.0   0.0   0.0   0.0   ----- 
Wed 15:00    C  0/ 11  20.2  8.3  ------    0.0   0.0   0.0   0.0   ----- 
Wed 15:30   SE  2/  7  20.6  9.9  ------    0.0   0.0   0.0   0.0   ----- 
Wed 16:00    S  2/  7  21.1  8.1  ------    0.0   0.0   0.0   0.0   ----- 
Wed 16:30  SSE  4/ 11  20.1  8.5  ------    0.0   0.0   0.0   0.0   ----- 
Wed 17:00   SE  2/  7  19.3  7.9  ------    0.0   0.0   0.0   0.0   ----- 
Wed 17:30    C  0/  4  18.2  7.8  ------    0.0   0.0   0.0   0.0   ----- 
Wed 18:00    C  0/  4  17.3  6.8  ------    0.0   0.0   0.0   0.0   ----- 
Wed 18:30  SSE  4/  6  15.6  6.6  ------    0.0   0.0   0.0   0.0   ----- 

NORTH ISLAND

Site: 008290
Alt: 2.2m
113km WNW of GERALDTON


  Time     Wind        Temp  DP   Baro     Rain since   Rain past  Vis(m), Cloud(base in m), Weather
  local        km/h                         9am  last   hr   10m    
Wed 13:00   SE 32/ 39  21.3  9.5  1024.9    0.0   0.0   0.0   0.0   ----- 
Wed 14:00  SSE 32/ 39  20.7  9.6  1023.9    0.0   0.0   0.0   0.0   ----- 
Wed 15:00  SSE 33/ 41  20.3 10.7  1023.0    0.0   0.0   0.0   0.0   ----- 
Wed 16:00  SSE 35/ 45  20.2 11.7  1022.6    0.0   0.0   0.0   0.0   ----- 
Wed 17:00  SSE 35/ 43  19.2 12.0  1022.3    0.0   0.0   0.0   0.0   ----- 
Wed 18:00  SSE 33/ 43  18.4 12.4  1022.5    0.0   0.0   0.0   0.0   ----- 

PERENJORI AG STATION

Site: 008NJA
Alt: 300m
49km NE of CARNAMAH


  Time     Wind        Temp  DP   Baro     Rain since   Rain past  Vis(m), Cloud(base in m), Weather
  local        km/h                         9am  last   hr   10m    
Wed 13:00  ESE 11/ 24  20.9  3.4  ------    0.0   0.0   0.0   0.0   ----- 
Wed 13:30  ESE  6/ 22  22.6  3.2  ------    0.0   0.0   0.0   0.0   ----- 
Wed 14:00  ESE 11/ 20  23.0  3.6  ------    0.0   0.0   0.0   0.0   ----- 
Wed 14:30   SE  9/ 24  23.2  3.2  ------    0.0   0.0   0.0   0.0   ----- 
Wed 15:00  SSE  9/ 20  23.4  3.3  ------    0.0   0.0   0.0   0.0   ----- 
Wed 15:30  SSE 15/ 24  23.4  3.6  ------    0.0   0.0   0.0   0.0   ----- 
Wed 16:00  ESE  9/ 19  23.4  3.8  ------    0.0   0.0   0.0   0.0   ----- 
Wed 16:30   SE  9/ 24  22.9  3.1  ------    0.0   0.0   0.0   0.0   ----- 
Wed 17:00  SSE 13/ 20  22.5  3.0  ------    0.0   0.0   0.0   0.0   ----- 
Wed 17:30   SE 13/ 22  21.7  3.1  ------    0.0   0.0   0.0   0.0   ----- 
Wed 18:00   SE 11/ 17  20.7  3.5  ------    0.0   0.0   0.0   0.0   ----- 
Wed 18:30  SSE  4/  7  18.5  3.9  ------    0.0   0.0   0.0   0.0   ----- 

THREE SPRINGS AG STATION

Site: 008RES
Alt: 250m
19km NNW of CARNAMAH


  Time     Wind        Temp  DP   Baro     Rain since   Rain past  Vis(m), Cloud(base in m), Weather
  local        km/h                         9am  last   hr   10m    
Wed 13:00   SE  7/ 20  21.8  4.3  ------    0.0   0.0   0.0   0.0   ----- 
Wed 13:30    E 13/ 20  22.4  3.9  ------    0.0   0.0   0.0   0.0   ----- 
Wed 14:00   SE 11/ 20  22.7  4.5  ------    0.0   0.0   0.0   0.0   ----- 
Wed 14:30  SSE  9/ 22  22.7  3.9  ------    0.0   0.0   0.0   0.0   ----- 
Wed 15:00   SE  9/ 20  23.1  3.9  ------    0.0   0.0   0.0   0.0   ----- 
Wed 15:30   SE 11/ 20  22.8  4.0  ------    0.0   0.0   0.0   0.0   ----- 
Wed 16:00  ESE  7/ 17  23.3  4.2  ------    0.0   0.0   0.0   0.0   ----- 
Wed 16:30   SE  9/ 20  22.7  3.4  ------    0.0   0.0   0.0   0.0   ----- 
Wed 17:00   SE  9/ 19  22.1  3.2  ------    0.0   0.0   0.0   0.0   ----- 
Wed 17:30   SE  7/ 13  21.0  3.5  ------    0.0   0.0   0.0   0.0   ----- 
Wed 18:00   SE  6/ 11  19.1  3.9  ------    0.0   0.0   0.0   0.0   ----- 
Wed 18:30   SE  9/ 13  18.0  4.1  ------    0.0   0.0   0.0   0.0   ----- 

WARRADARGE EAST AG STATION

Site: 008RDE
Alt: 300m
33km NE of JURIEN BAY


  Time     Wind        Temp  DP   Baro     Rain since   Rain past  Vis(m), Cloud(base in m), Weather
  local        km/h                         9am  last   hr   10m    
Wed 13:00    E  7/ 17  21.7  6.3  ------    0.2   0.0   0.2   0.0   ----- 
Wed 13:30   SE  7/ 17  22.2  5.3  ------    0.2   0.0   0.0   0.0   ----- 
Wed 13:30   SE  7/ 17  22.2  5.3  ------    0.2   0.0  ----   0.0   ----- 
Wed 14:00   SE  9/ 33  22.5  4.6  ------    0.2   0.0   0.0   0.0   ----- 
Wed 14:30   SE  9/ 17  22.8  4.8  ------    0.2   0.0   0.0   0.0   ----- 
Wed 15:00  SSE  7/ 17  23.0  5.2  ------    0.2   0.0   0.0   0.0   ----- 
Wed 15:00  SSE  7/ 17  23.0  5.2  ------    0.2   0.0  ----   0.0   ----- 
Wed 15:30  SSE 11/ 22  22.9  4.4  ------    0.2   0.0   0.0   0.0   ----- 
Wed 16:00   SE 11/ 19  22.2  4.3  ------    0.2   0.0   0.0   0.0   ----- 
Wed 16:00   SE 11/ 19  22.2  4.3  ------    0.2   0.0  ----   0.0   ----- 
Wed 16:30  SSE  9/ 24  22.2  4.6  ------    0.2   0.0   0.0   0.0   ----- 
Wed 17:00   SE 11/ 19  21.4  4.2  ------    0.2   0.0   0.0   0.0   ----- 
Wed 17:00   SE 11/ 19  21.4  4.2  ------    0.2   0.0  ----   0.0   ----- 
Wed 17:30  SSE  2/ 17  20.4  4.8  ------    0.2   0.0   0.0   0.0   ----- 
Wed 18:00   SE  7/ 13  18.5  4.9  ------    0.2   0.0   0.0   0.0   ----- 
Wed 18:00   SE  7/ 13  18.5  4.9  ------    0.2   0.0  ----   0.0   ----- 
Wed 18:30   SE  6/ 11  15.8  5.4  ------    0.2   0.0   0.0   0.0   ----- 

WATHEROO AG STATION

Site: 008TRO
Alt: 250m
37km N of MOORA


  Time     Wind        Temp  DP   Baro     Rain since   Rain past  Vis(m), Cloud(base in m), Weather
  local        km/h                         9am  last   hr   10m    
Wed 13:00  SSE  7/ 13  19.6  9.8  ------    0.0   0.0   0.0   0.0   ----- 
Wed 13:30   SE  7/ 15  19.6  8.0  ------    0.0   0.0   0.0   0.0   ----- 
Wed 14:00    E  6/ 15  19.6  8.2  ------    0.0   0.0   0.0   0.0   ----- 
Wed 14:30    E  7/ 15  20.2  9.4  ------    0.0   0.0   0.0   0.0   ----- 
Wed 15:00  SSE  7/ 17  20.6  7.8  ------    0.0   0.0   0.0   0.0   ----- 
Wed 15:30   SE  9/ 17  20.3  8.0  ------    0.0   0.0   0.0   0.0   ----- 
Wed 16:00   SE  7/ 15  20.3  7.4  ------    0.0   0.0   0.0   0.0   ----- 
Wed 16:30   SE  9/ 17  19.7  7.6  ------    0.0   0.0   0.0   0.0   ----- 
Wed 17:00  SSE  7/ 13  19.8  8.5  ------    0.0   0.0   0.0   0.0   ----- 
Wed 17:30  SSE  7/ 15  18.5  9.1  ------    0.0   0.0   0.0   0.0   ----- 
Wed 18:00  SSE  7/ 11  16.6  8.4  ------    0.0   0.0   0.0   0.0   ----- 
Wed 18:00  SSE  7/ 11  16.6  8.4  ------    0.0   0.0  ----   0.0   ----- 
Wed 18:30   SE  4/  7  14.1  7.9  ------    0.0   0.0   0.0   0.0   ----- 

WONGAN HILLS AG STATION

Site: 008GWH
Alt: m
km of


  Time     Wind        Temp  DP   Baro     Rain since   Rain past  Vis(m), Cloud(base in m), Weather
  local        km/h                         9am  last   hr   10m    
Wed 13:00  SSE  9/ 20  19.6  7.5  ------    0.0   0.0   0.0   0.0   ----- 
Wed 13:30  ESE  7/ 17  20.0  6.9  ------    0.0   0.0   0.0   0.0   ----- 
Wed 14:00  SSW  6/ 17  19.8  7.0  ------    0.0   0.0   0.0   0.0   ----- 
Wed 14:30   SE  9/ 22  19.8  6.6  ------    0.0   0.0   0.0   0.0   ----- 
Wed 15:00   SE  7/ 15  20.6  6.3  ------    0.0   0.0   0.0   0.0   ----- 
Wed 15:30    S  4/ 13  20.3  6.5  ------    0.0   0.0   0.0   0.0   ----- 
Wed 16:00  SSE  7/ 19  20.0  5.7  ------    0.0   0.0   0.0   0.0   ----- 
Wed 16:30  SSE  9/ 17  20.0  5.1  ------    0.0   0.0   0.0   0.0   ----- 
Wed 17:00  SSE  9/ 17  19.8  4.7  ------    0.0   0.0   0.0   0.0   ----- 
Wed 17:30  SSE  7/ 13  18.9  4.5  ------    0.0   0.0   0.0   0.0   ----- 

Wed 18:00    S  2/  6  15.9  6.5  ------    0.0   0.0   0.0   0.0   ----- 
Wed 18:30  SSW  2/  6  11.6  6.3  ------    0.0   0.0   0.0   0.0   -----